sensor_id;sensor_type;location;lat;lon;timestamp;P1;durP1;ratioP1;P2;durP2;ratioP2
61104;SDS011;46987;32.638;-115.438;2022-08-04T00:00:25;9.27;;;2.45;;
61104;SDS011;46987;32.638;-115.438;2022-08-04T00:03:04;10.25;;;2.20;;
61104;SDS011;46987;32.638;-115.438;2022-08-04T00:05:58;8.15;;;1.85;;
61104;SDS011;46987;32.638;-115.438;2022-08-04T00:08:36;9.27;;;2.30;;
61104;SDS011;46987;32.638;-115.438;2022-08-04T00:11:09;6.45;;;2.13;;
61104;SDS011;46987;32.638;-115.438;2022-08-04T00:13:48;9.77;;;2.40;;
61104;SDS011;46987;32.638;-115.438;2022-08-04T00:16:21;8.30;;;2.08;;
61104;SDS011;46987;32.638;-115.438;2022-08-04T00:18:51;16.52;;;2.55;;
61104;SDS011;46987;32.638;-115.438;2022-08-04T00:21:24;9.07;;;2.38;;
61104;SDS011;46987;32.638;-115.438;2022-08-04T00:23:54;11.43;;;2.35;;
61104;SDS011;46987;32.638;-115.438;2022-08-04T00:26:22;9.75;;;2.03;;
61104;SDS011;46987;32.638;-115.438;2022-08-04T00:28:50;10.90;;;2.83;;
61104;SDS011;46987;32.638;-115.438;2022-08-04T00:31:18;13.00;;;2.58;;
61104;SDS011;46987;32.638;-115.438;2022-08-04T00:33:46;6.78;;;1.80;;
61104;SDS011;46987;32.638;-115.438;2022-08-04T00:36:15;8.43;;;2.75;;
61104;SDS011;46987;32.638;-115.438;2022-08-04T00:38:45;6.57;;;1.70;;
61104;SDS011;46987;32.638;-115.438;2022-08-04T00:41:16;7.60;;;1.85;;
61104;SDS011;46987;32.638;-115.438;2022-08-04T00:43:50;9.02;;;2.33;;
61104;SDS011;46987;32.638;-115.438;2022-08-04T00:46:34;9.02;;;2.17;;
61104;SDS011;46987;32.638;-115.438;2022-08-04T00:49:27;8.98;;;1.70;;
61104;SDS011;46987;32.638;-115.438;2022-08-04T00:52:12;12.00;;;2.30;;
61104;SDS011;46987;32.638;-115.438;2022-08-04T00:54:58;7.07;;;1.98;;
61104;SDS011;46987;32.638;-115.438;2022-08-04T00:57:41;7.13;;;2.10;;
61104;SDS011;46987;32.638;-115.438;2022-08-04T01:02:50;9.25;;;2.00;;
61104;SDS011;46987;32.638;-115.438;2022-08-04T01:05:33;12.98;;;2.42;;
61104;SDS011;46987;32.638;-115.438;2022-08-04T01:08:25;12.43;;;2.92;;
61104;SDS011;46987;32.638;-115.438;2022-08-04T01:11:15;15.65;;;2.67;;
61104;SDS011;46987;32.638;-115.438;2022-08-04T01:14:07;14.07;;;2.70;;
61104;SDS011;46987;32.638;-115.438;2022-08-04T01:16:48;13.25;;;2.67;;
61104;SDS011;46987;32.638;-115.438;2022-08-04T01:19:29;10.75;;;2.65;;
61104;SDS011;46987;32.638;-115.438;2022-08-04T01:22:25;13.85;;;2.53;;
61104;SDS011;46987;32.638;-115.438;2022-08-04T01:25:27;11.70;;;2.80;;
61104;SDS011;46987;32.638;-115.438;2022-08-04T01:28:15;15.50;;;2.92;;
61104;SDS011;46987;32.638;-115.438;2022-08-04T01:31:00;18.90;;;2.88;;
61104;SDS011;46987;32.638;-115.438;2022-08-04T01:33:46;15.18;;;3.22;;
61104;SDS011;46987;32.638;-115.438;2022-08-04T01:36:16;11.98;;;2.72;;
61104;SDS011;46987;32.638;-115.438;2022-08-04T01:38:46;15.98;;;2.78;;
61104;SDS011;46987;32.638;-115.438;2022-08-04T01:41:14;12.57;;;2.60;;
61104;SDS011;46987;32.638;-115.438;2022-08-04T01:43:45;13.55;;;2.80;;
61104;SDS011;46987;32.638;-115.438;2022-08-04T01:46:14;11.15;;;2.95;;
61104;SDS011;46987;32.638;-115.438;2022-08-04T01:48:43;16.67;;;2.83;;
61104;SDS011;46987;32.638;-115.438;2022-08-04T01:51:12;9.65;;;2.40;;
61104;SDS011;46987;32.638;-115.438;2022-08-04T01:53:40;15.02;;;3.28;;
61104;SDS011;46987;32.638;-115.438;2022-08-04T01:56:10;12.00;;;3.60;;
61104;SDS011;46987;32.638;-115.438;2022-08-04T01:58:38;12.02;;;2.70;;
61104;SDS011;46987;32.638;-115.438;2022-08-04T02:01:08;11.93;;;2.47;;
61104;SDS011;46987;32.638;-115.438;2022-08-04T02:03:39;14.27;;;3.08;;
61104;SDS011;46987;32.638;-115.438;2022-08-04T02:08:47;14.43;;;3.13;;
61104;SDS011;46987;32.638;-115.438;2022-08-04T02:11:22;16.05;;;4.10;;
61104;SDS011;46987;32.638;-115.438;2022-08-04T02:13:53;15.55;;;3.20;;
61104;SDS011;46987;32.638;-115.438;2022-08-04T02:16:28;11.05;;;2.63;;
61104;SDS011;46987;32.638;-115.438;2022-08-04T02:19:10;10.43;;;2.10;;
61104;SDS011;46987;32.638;-115.438;2022-08-04T02:21:50;22.48;;;3.85;;
61104;SDS011;46987;32.638;-115.438;2022-08-04T02:24:23;19.02;;;3.85;;
61104;SDS011;46987;32.638;-115.438;2022-08-04T02:26:52;16.92;;;3.45;;
61104;SDS011;46987;32.638;-115.438;2022-08-04T02:29:26;17.45;;;3.33;;
61104;SDS011;46987;32.638;-115.438;2022-08-04T02:32:02;13.13;;;3.30;;
61104;SDS011;46987;32.638;-115.438;2022-08-04T02:34:35;13.95;;;3.00;;
61104;SDS011;46987;32.638;-115.438;2022-08-04T02:37:07;12.02;;;3.08;;
61104;SDS011;46987;32.638;-115.438;2022-08-04T02:39:36;10.88;;;3.22;;
61104;SDS011;46987;32.638;-115.438;2022-08-04T02:42:07;11.70;;;2.88;;
61104;SDS011;46987;32.638;-115.438;2022-08-04T02:44:37;20.92;;;3.55;;
61104;SDS011;46987;32.638;-115.438;2022-08-04T02:47:05;12.10;;;3.13;;
61104;SDS011;46987;32.638;-115.438;2022-08-04T02:49:36;10.02;;;2.72;;
61104;SDS011;46987;32.638;-115.438;2022-08-04T02:52:05;14.20;;;2.67;;
61104;SDS011;46987;32.638;-115.438;2022-08-04T02:54:38;11.77;;;3.03;;
61104;SDS011;46987;32.638;-115.438;2022-08-04T02:57:07;10.45;;;2.53;;
61104;SDS011;46987;32.638;-115.438;2022-08-04T02:59:47;14.45;;;2.83;;
61104;SDS011;46987;32.638;-115.438;2022-08-04T03:02:35;20.45;;;3.38;;
61104;SDS011;46987;32.638;-115.438;2022-08-04T03:05:15;12.55;;;2.65;;
61104;SDS011;46987;32.638;-115.438;2022-08-04T03:10:25;15.98;;;3.10;;
61104;SDS011;46987;32.638;-115.438;2022-08-04T03:16:28;15.35;;;3.40;;
61104;SDS011;46987;32.638;-115.438;2022-08-04T03:22:39;16.38;;;3.45;;
61104;SDS011;46987;32.638;-115.438;2022-08-04T03:31:53;16.73;;;3.05;;
61104;SDS011;46987;32.638;-115.438;2022-08-04T03:34:42;11.05;;;3.00;;
61104;SDS011;46987;32.638;-115.438;2022-08-04T03:37:27;19.00;;;3.13;;
61104;SDS011;46987;32.638;-115.438;2022-08-04T03:40:17;18.02;;;3.40;;
61104;SDS011;46987;32.638;-115.438;2022-08-04T03:43:13;15.18;;;2.88;;
61104;SDS011;46987;32.638;-115.438;2022-08-04T03:46:09;14.57;;;3.03;;
61104;SDS011;46987;32.638;-115.438;2022-08-04T03:49:11;10.15;;;2.35;;
61104;SDS011;46987;32.638;-115.438;2022-08-04T03:52:07;13.80;;;3.08;;
61104;SDS011;46987;32.638;-115.438;2022-08-04T03:55:12;16.48;;;3.30;;
61104;SDS011;46987;32.638;-115.438;2022-08-04T03:58:10;13.95;;;3.13;;
61104;SDS011;46987;32.638;-115.438;2022-08-04T04:01:01;22.85;;;3.83;;
61104;SDS011;46987;32.638;-115.438;2022-08-04T04:03:40;13.48;;;2.80;;
61104;SDS011;46987;32.638;-115.438;2022-08-04T04:06:34;15.55;;;3.17;;
61104;SDS011;46987;32.638;-115.438;2022-08-04T04:09:39;22.08;;;3.50;;
61104;SDS011;46987;32.638;-115.438;2022-08-04T04:12:37;16.35;;;3.30;;
61104;SDS011;46987;32.638;-115.438;2022-08-04T04:15:33;22.30;;;3.55;;
61104;SDS011;46987;32.638;-115.438;2022-08-04T04:18:15;22.13;;;2.97;;
61104;SDS011;46987;32.638;-115.438;2022-08-04T04:20:57;16.27;;;3.75;;
61104;SDS011;46987;32.638;-115.438;2022-08-04T04:24:02;13.55;;;2.88;;
61104;SDS011;46987;32.638;-115.438;2022-08-04T04:26:48;16.48;;;3.65;;
61104;SDS011;46987;32.638;-115.438;2022-08-04T04:32:29;16.33;;;2.83;;
61104;SDS011;46987;32.638;-115.438;2022-08-04T04:35:09;14.40;;;2.83;;
61104;SDS011;46987;32.638;-115.438;2022-08-04T04:38:02;11.20;;;2.58;;
61104;SDS011;46987;32.638;-115.438;2022-08-04T04:40:44;19.15;;;3.22;;
61104;SDS011;46987;32.638;-115.438;2022-08-04T04:43:29;16.17;;;3.55;;
61104;SDS011;46987;32.638;-115.438;2022-08-04T04:46:20;16.48;;;3.17;;
61104;SDS011;46987;32.638;-115.438;2022-08-04T04:48:59;17.70;;;3.53;;
61104;SDS011;46987;32.638;-115.438;2022-08-04T04:51:36;13.45;;;2.88;;
61104;SDS011;46987;32.638;-115.438;2022-08-04T04:54:13;10.82;;;3.22;;
61104;SDS011;46987;32.638;-115.438;2022-08-04T04:56:52;11.20;;;2.95;;
61104;SDS011;46987;32.638;-115.438;2022-08-04T04:59:31;16.42;;;3.17;;
61104;SDS011;46987;32.638;-115.438;2022-08-04T05:08:02;12.52;;;2.67;;
61104;SDS011;46987;32.638;-115.438;2022-08-04T05:10:46;13.90;;;3.05;;
61104;SDS011;46987;32.638;-115.438;2022-08-04T05:13:31;12.18;;;2.85;;
61104;SDS011;46987;32.638;-115.438;2022-08-04T05:16:04;13.13;;;3.40;;
61104;SDS011;46987;32.638;-115.438;2022-08-04T05:18:36;12.70;;;3.08;;
61104;SDS011;46987;32.638;-115.438;2022-08-04T05:21:09;13.73;;;3.13;;
61104;SDS011;46987;32.638;-115.438;2022-08-04T05:24:01;21.48;;;2.85;;
61104;SDS011;46987;32.638;-115.438;2022-08-04T05:26:31;17.80;;;3.17;;
61104;SDS011;46987;32.638;-115.438;2022-08-04T05:29:05;13.73;;;3.13;;
61104;SDS011;46987;32.638;-115.438;2022-08-04T05:31:37;15.27;;;3.30;;
61104;SDS011;46987;32.638;-115.438;2022-08-04T05:34:08;15.95;;;4.03;;
61104;SDS011;46987;32.638;-115.438;2022-08-04T05:36:39;15.80;;;3.40;;
61104;SDS011;46987;32.638;-115.438;2022-08-04T05:39:11;12.38;;;2.90;;
61104;SDS011;46987;32.638;-115.438;2022-08-04T05:41:42;16.88;;;3.20;;
61104;SDS011;46987;32.638;-115.438;2022-08-04T05:44:10;10.40;;;3.28;;
61104;SDS011;46987;32.638;-115.438;2022-08-04T05:46:38;11.80;;;2.75;;
61104;SDS011;46987;32.638;-115.438;2022-08-04T05:49:06;10.50;;;2.90;;
61104;SDS011;46987;32.638;-115.438;2022-08-04T05:51:36;11.73;;;2.78;;
61104;SDS011;46987;32.638;-115.438;2022-08-04T05:54:05;14.02;;;3.75;;
61104;SDS011;46987;32.638;-115.438;2022-08-04T05:56:36;13.52;;;3.17;;
61104;SDS011;46987;32.638;-115.438;2022-08-04T05:59:05;17.92;;;3.47;;
61104;SDS011;46987;32.638;-115.438;2022-08-04T06:01:33;18.02;;;3.72;;
61104;SDS011;46987;32.638;-115.438;2022-08-04T06:04:03;16.98;;;2.85;;
61104;SDS011;46987;32.638;-115.438;2022-08-04T06:06:31;12.98;;;3.28;;
61104;SDS011;46987;32.638;-115.438;2022-08-04T06:09:00;14.10;;;3.65;;
61104;SDS011;46987;32.638;-115.438;2022-08-04T06:11:28;19.92;;;3.58;;
61104;SDS011;46987;32.638;-115.438;2022-08-04T06:13:58;14.57;;;3.67;;
61104;SDS011;46987;32.638;-115.438;2022-08-04T06:16:32;14.55;;;3.53;;
61104;SDS011;46987;32.638;-115.438;2022-08-04T06:19:05;12.05;;;3.33;;
61104;SDS011;46987;32.638;-115.438;2022-08-04T06:21:34;8.52;;;2.80;;
61104;SDS011;46987;32.638;-115.438;2022-08-04T06:24:04;12.68;;;2.78;;
61104;SDS011;46987;32.638;-115.438;2022-08-04T06:26:38;12.57;;;3.00;;
61104;SDS011;46987;32.638;-115.438;2022-08-04T06:34:30;13.50;;;3.28;;
61104;SDS011;46987;32.638;-115.438;2022-08-04T06:37:00;17.55;;;4.53;;
61104;SDS011;46987;32.638;-115.438;2022-08-04T06:39:28;18.70;;;3.50;;
61104;SDS011;46987;32.638;-115.438;2022-08-04T06:41:57;13.73;;;3.60;;
61104;SDS011;46987;32.638;-115.438;2022-08-04T06:44:25;11.35;;;3.40;;
61104;SDS011;46987;32.638;-115.438;2022-08-04T06:46:55;8.15;;;2.83;;
61104;SDS011;46987;32.638;-115.438;2022-08-04T06:49:23;12.18;;;3.38;;
61104;SDS011;46987;32.638;-115.438;2022-08-04T06:51:53;14.07;;;3.72;;
61104;SDS011;46987;32.638;-115.438;2022-08-04T06:54:23;13.87;;;2.93;;
61104;SDS011;46987;32.638;-115.438;2022-08-04T06:56:50;9.63;;;3.22;;
61104;SDS011;46987;32.638;-115.438;2022-08-04T07:01:50;10.63;;;2.40;;
61104;SDS011;46987;32.638;-115.438;2022-08-04T07:04:19;10.20;;;2.70;;
61104;SDS011;46987;32.638;-115.438;2022-08-04T07:06:46;13.90;;;3.05;;
61104;SDS011;46987;32.638;-115.438;2022-08-04T07:09:15;14.55;;;3.42;;
61104;SDS011;46987;32.638;-115.438;2022-08-04T07:11:43;12.85;;;2.80;;
61104;SDS011;46987;32.638;-115.438;2022-08-04T07:14:12;8.57;;;3.00;;
61104;SDS011;46987;32.638;-115.438;2022-08-04T07:16:43;13.80;;;2.95;;
61104;SDS011;46987;32.638;-115.438;2022-08-04T07:19:14;10.13;;;2.78;;
61104;SDS011;46987;32.638;-115.438;2022-08-04T07:21:42;12.52;;;2.90;;
61104;SDS011;46987;32.638;-115.438;2022-08-04T07:24:09;11.80;;;3.70;;
61104;SDS011;46987;32.638;-115.438;2022-08-04T07:26:38;10.20;;;2.97;;
61104;SDS011;46987;32.638;-115.438;2022-08-04T07:29:06;11.75;;;3.20;;
61104;SDS011;46987;32.638;-115.438;2022-08-04T07:31:36;11.90;;;3.15;;
61104;SDS011;46987;32.638;-115.438;2022-08-04T07:34:03;10.38;;;2.90;;
61104;SDS011;46987;32.638;-115.438;2022-08-04T07:36:31;11.05;;;2.88;;
61104;SDS011;46987;32.638;-115.438;2022-08-04T07:38:59;8.45;;;2.90;;
61104;SDS011;46987;32.638;-115.438;2022-08-04T07:41:26;11.57;;;3.13;;
61104;SDS011;46987;32.638;-115.438;2022-08-04T07:43:55;10.40;;;2.50;;
61104;SDS011;46987;32.638;-115.438;2022-08-04T07:46:23;10.07;;;2.67;;
61104;SDS011;46987;32.638;-115.438;2022-08-04T07:48:51;9.43;;;2.67;;
61104;SDS011;46987;32.638;-115.438;2022-08-04T07:51:21;6.28;;;2.40;;
61104;SDS011;46987;32.638;-115.438;2022-08-04T07:53:50;9.35;;;3.05;;
61104;SDS011;46987;32.638;-115.438;2022-08-04T07:56:17;10.70;;;2.78;;
61104;SDS011;46987;32.638;-115.438;2022-08-04T07:58:45;8.45;;;2.47;;
61104;SDS011;46987;32.638;-115.438;2022-08-04T08:01:14;8.45;;;2.95;;
61104;SDS011;46987;32.638;-115.438;2022-08-04T08:03:41;8.85;;;2.22;;
61104;SDS011;46987;32.638;-115.438;2022-08-04T08:06:09;9.80;;;2.42;;
61104;SDS011;46987;32.638;-115.438;2022-08-04T08:08:37;11.00;;;2.80;;
61104;SDS011;46987;32.638;-115.438;2022-08-04T08:11:05;11.70;;;2.70;;
61104;SDS011;46987;32.638;-115.438;2022-08-04T08:13:34;7.90;;;2.60;;
61104;SDS011;46987;32.638;-115.438;2022-08-04T08:16:03;8.18;;;2.42;;
61104;SDS011;46987;32.638;-115.438;2022-08-04T08:18:32;11.60;;;2.92;;
61104;SDS011;46987;32.638;-115.438;2022-08-04T08:21:00;7.70;;;2.83;;
61104;SDS011;46987;32.638;-115.438;2022-08-04T08:23:27;9.27;;;2.53;;
61104;SDS011;46987;32.638;-115.438;2022-08-04T08:25:57;5.80;;;2.42;;
61104;SDS011;46987;32.638;-115.438;2022-08-04T08:28:24;11.05;;;2.83;;
61104;SDS011;46987;32.638;-115.438;2022-08-04T08:30:53;9.43;;;2.80;;
61104;SDS011;46987;32.638;-115.438;2022-08-04T08:33:21;13.93;;;3.13;;
61104;SDS011;46987;32.638;-115.438;2022-08-04T08:35:55;10.75;;;2.70;;
61104;SDS011;46987;32.638;-115.438;2022-08-04T08:38:33;8.18;;;2.28;;
61104;SDS011;46987;32.638;-115.438;2022-08-04T08:44:23;10.55;;;2.33;;
61104;SDS011;46987;32.638;-115.438;2022-08-04T08:47:26;7.03;;;2.53;;
61104;SDS011;46987;32.638;-115.438;2022-08-04T08:50:15;8.07;;;2.40;;
61104;SDS011;46987;32.638;-115.438;2022-08-04T08:53:01;8.80;;;3.00;;
61104;SDS011;46987;32.638;-115.438;2022-08-04T08:55:41;9.68;;;3.03;;
61104;SDS011;46987;32.638;-115.438;2022-08-04T08:58:22;12.52;;;3.25;;
61104;SDS011;46987;32.638;-115.438;2022-08-04T09:01:04;8.98;;;2.85;;
61104;SDS011;46987;32.638;-115.438;2022-08-04T09:03:45;8.95;;;2.85;;
61104;SDS011;46987;32.638;-115.438;2022-08-04T09:06:40;10.35;;;2.92;;
61104;SDS011;46987;32.638;-115.438;2022-08-04T09:09:32;9.43;;;3.25;;
61104;SDS011;46987;32.638;-115.438;2022-08-04T09:12:08;10.55;;;3.08;;
61104;SDS011;46987;32.638;-115.438;2022-08-04T09:14:41;10.40;;;3.33;;
61104;SDS011;46987;32.638;-115.438;2022-08-04T09:17:19;10.52;;;3.15;;
61104;SDS011;46987;32.638;-115.438;2022-08-04T09:19:55;8.82;;;3.10;;
61104;SDS011;46987;32.638;-115.438;2022-08-04T09:22:31;9.00;;;3.10;;
61104;SDS011;46987;32.638;-115.438;2022-08-04T09:25:06;11.63;;;3.40;;
61104;SDS011;46987;32.638;-115.438;2022-08-04T09:27:40;8.32;;;2.78;;
61104;SDS011;46987;32.638;-115.438;2022-08-04T09:30:12;10.48;;;2.95;;
61104;SDS011;46987;32.638;-115.438;2022-08-04T09:32:46;9.88;;;2.67;;
61104;SDS011;46987;32.638;-115.438;2022-08-04T09:35:27;12.85;;;3.22;;
61104;SDS011;46987;32.638;-115.438;2022-08-04T09:38:04;10.13;;;2.80;;
61104;SDS011;46987;32.638;-115.438;2022-08-04T09:40:46;10.20;;;2.95;;
61104;SDS011;46987;32.638;-115.438;2022-08-04T09:43:25;9.65;;;3.20;;
61104;SDS011;46987;32.638;-115.438;2022-08-04T09:45:59;14.35;;;3.15;;
61104;SDS011;46987;32.638;-115.438;2022-08-04T09:48:36;11.63;;;3.10;;
61104;SDS011;46987;32.638;-115.438;2022-08-04T09:51:14;9.23;;;2.97;;
61104;SDS011;46987;32.638;-115.438;2022-08-04T09:54:00;13.63;;;3.30;;
61104;SDS011;46987;32.638;-115.438;2022-08-04T09:56:34;9.45;;;3.30;;
61104;SDS011;46987;32.638;-115.438;2022-08-04T09:59:10;15.05;;;3.75;;
61104;SDS011;46987;32.638;-115.438;2022-08-04T10:01:48;9.88;;;3.08;;
61104;SDS011;46987;32.638;-115.438;2022-08-04T10:04:19;12.18;;;3.38;;
61104;SDS011;46987;32.638;-115.438;2022-08-04T10:06:58;12.13;;;3.65;;
61104;SDS011;46987;32.638;-115.438;2022-08-04T10:09:46;12.60;;;4.57;;
61104;SDS011;46987;32.638;-115.438;2022-08-04T10:12:37;11.80;;;3.58;;
61104;SDS011;46987;32.638;-115.438;2022-08-04T10:15:13;14.68;;;4.10;;
61104;SDS011;46987;32.638;-115.438;2022-08-04T10:17:50;10.02;;;3.88;;
61104;SDS011;46987;32.638;-115.438;2022-08-04T10:23:26;11.40;;;3.83;;
61104;SDS011;46987;32.638;-115.438;2022-08-04T10:26:17;12.10;;;3.45;;
61104;SDS011;46987;32.638;-115.438;2022-08-04T10:28:55;11.57;;;3.60;;
61104;SDS011;46987;32.638;-115.438;2022-08-04T10:31:29;13.52;;;3.50;;
61104;SDS011;46987;32.638;-115.438;2022-08-04T10:34:02;8.98;;;3.65;;
61104;SDS011;46987;32.638;-115.438;2022-08-04T10:36:39;10.25;;;3.58;;
61104;SDS011;46987;32.638;-115.438;2022-08-04T10:39:24;14.55;;;3.88;;
61104;SDS011;46987;32.638;-115.438;2022-08-04T10:42:00;12.43;;;4.07;;
61104;SDS011;46987;32.638;-115.438;2022-08-04T10:44:42;14.30;;;4.13;;
61104;SDS011;46987;32.638;-115.438;2022-08-04T10:47:25;11.63;;;4.50;;
61104;SDS011;46987;32.638;-115.438;2022-08-04T10:50:01;13.32;;;4.40;;
61104;SDS011;46987;32.638;-115.438;2022-08-04T10:52:32;15.23;;;4.28;;
61104;SDS011;46987;32.638;-115.438;2022-08-04T10:55:05;11.77;;;3.78;;
61104;SDS011;46987;32.638;-115.438;2022-08-04T10:57:38;15.35;;;4.00;;
61104;SDS011;46987;32.638;-115.438;2022-08-04T11:00:13;13.50;;;4.22;;
61104;SDS011;46987;32.638;-115.438;2022-08-04T11:02:48;13.05;;;4.25;;
61104;SDS011;46987;32.638;-115.438;2022-08-04T11:05:22;15.02;;;4.30;;
61104;SDS011;46987;32.638;-115.438;2022-08-04T11:07:54;15.43;;;3.53;;
61104;SDS011;46987;32.638;-115.438;2022-08-04T11:10:27;12.15;;;3.25;;
61104;SDS011;46987;32.638;-115.438;2022-08-04T11:13:00;11.77;;;3.40;;
61104;SDS011;46987;32.638;-115.438;2022-08-04T11:15:35;11.23;;;4.07;;
61104;SDS011;46987;32.638;-115.438;2022-08-04T11:18:06;13.52;;;3.58;;
61104;SDS011;46987;32.638;-115.438;2022-08-04T11:25:57;9.40;;;3.10;;
61104;SDS011;46987;32.638;-115.438;2022-08-04T11:28:35;11.30;;;2.97;;
61104;SDS011;46987;32.638;-115.438;2022-08-04T11:31:15;11.68;;;2.90;;
61104;SDS011;46987;32.638;-115.438;2022-08-04T11:33:47;10.48;;;2.95;;
61104;SDS011;46987;32.638;-115.438;2022-08-04T11:36:19;8.07;;;2.50;;
61104;SDS011;46987;32.638;-115.438;2022-08-04T11:38:56;11.25;;;3.30;;
61104;SDS011;46987;32.638;-115.438;2022-08-04T11:41:36;9.50;;;3.20;;
61104;SDS011;46987;32.638;-115.438;2022-08-04T11:44:17;11.35;;;3.15;;
61104;SDS011;46987;32.638;-115.438;2022-08-04T11:46:55;7.68;;;3.15;;
61104;SDS011;46987;32.638;-115.438;2022-08-04T11:49:28;7.97;;;3.20;;
61104;SDS011;46987;32.638;-115.438;2022-08-04T11:51:59;12.50;;;3.33;;
61104;SDS011;46987;32.638;-115.438;2022-08-04T11:54:29;8.93;;;3.00;;
61104;SDS011;46987;32.638;-115.438;2022-08-04T11:56:59;9.23;;;2.63;;
61104;SDS011;46987;32.638;-115.438;2022-08-04T11:59:28;8.95;;;3.30;;
61104;SDS011;46987;32.638;-115.438;2022-08-04T12:02:17;9.65;;;2.65;;
61104;SDS011;46987;32.638;-115.438;2022-08-04T12:05:02;8.43;;;2.85;;
61104;SDS011;46987;32.638;-115.438;2022-08-04T12:07:39;8.90;;;3.05;;
61104;SDS011;46987;32.638;-115.438;2022-08-04T12:10:18;10.40;;;2.88;;
61104;SDS011;46987;32.638;-115.438;2022-08-04T12:12:57;10.13;;;2.70;;
61104;SDS011;46987;32.638;-115.438;2022-08-04T12:15:36;9.90;;;2.88;;
61104;SDS011;46987;32.638;-115.438;2022-08-04T12:18:13;14.15;;;3.15;;
61104;SDS011;46987;32.638;-115.438;2022-08-04T12:20:47;9.85;;;2.75;;
61104;SDS011;46987;32.638;-115.438;2022-08-04T12:23:21;7.35;;;3.03;;
61104;SDS011;46987;32.638;-115.438;2022-08-04T12:25:53;12.15;;;2.95;;
61104;SDS011;46987;32.638;-115.438;2022-08-04T12:28:25;6.75;;;2.40;;
61104;SDS011;46987;32.638;-115.438;2022-08-04T12:30:58;10.82;;;2.97;;
61104;SDS011;46987;32.638;-115.438;2022-08-04T12:33:33;11.13;;;2.92;;
61104;SDS011;46987;32.638;-115.438;2022-08-04T12:36:08;13.07;;;3.20;;
61104;SDS011;46987;32.638;-115.438;2022-08-04T12:38:45;11.13;;;2.88;;
61104;SDS011;46987;32.638;-115.438;2022-08-04T12:41:19;13.45;;;3.20;;
61104;SDS011;46987;32.638;-115.438;2022-08-04T12:43:49;12.13;;;3.80;;
61104;SDS011;46987;32.638;-115.438;2022-08-04T12:46:19;12.43;;;3.20;;
61104;SDS011;46987;32.638;-115.438;2022-08-04T12:48:49;10.80;;;3.45;;
61104;SDS011;46987;32.638;-115.438;2022-08-04T12:51:17;11.60;;;3.83;;
61104;SDS011;46987;32.638;-115.438;2022-08-04T12:53:45;14.00;;;5.18;;
61104;SDS011;46987;32.638;-115.438;2022-08-04T12:56:13;15.00;;;3.50;;
61104;SDS011;46987;32.638;-115.438;2022-08-04T12:58:43;11.40;;;3.45;;
61104;SDS011;46987;32.638;-115.438;2022-08-04T13:01:16;12.57;;;3.08;;
61104;SDS011;46987;32.638;-115.438;2022-08-04T13:06:17;10.73;;;2.83;;
61104;SDS011;46987;32.638;-115.438;2022-08-04T13:08:52;12.02;;;3.13;;
61104;SDS011;46987;32.638;-115.438;2022-08-04T13:11:21;11.93;;;3.88;;
61104;SDS011;46987;32.638;-115.438;2022-08-04T13:13:50;15.95;;;3.90;;
61104;SDS011;46987;32.638;-115.438;2022-08-04T13:16:27;15.60;;;5.40;;
61104;SDS011;46987;32.638;-115.438;2022-08-04T13:18:55;14.27;;;6.63;;
61104;SDS011;46987;32.638;-115.438;2022-08-04T13:21:26;14.55;;;7.07;;
61104;SDS011;46987;32.638;-115.438;2022-08-04T13:23:55;17.20;;;7.20;;
61104;SDS011;46987;32.638;-115.438;2022-08-04T13:26:27;14.73;;;8.03;;
61104;SDS011;46987;32.638;-115.438;2022-08-04T13:28:57;17.45;;;7.68;;
61104;SDS011;46987;32.638;-115.438;2022-08-04T13:31:27;14.65;;;6.90;;
61104;SDS011;46987;32.638;-115.438;2022-08-04T13:34:02;20.20;;;7.75;;
61104;SDS011;46987;32.638;-115.438;2022-08-04T13:36:33;12.13;;;6.88;;
61104;SDS011;46987;32.638;-115.438;2022-08-04T13:39:04;16.40;;;7.88;;
61104;SDS011;46987;32.638;-115.438;2022-08-04T13:41:34;15.50;;;5.70;;
61104;SDS011;46987;32.638;-115.438;2022-08-04T13:44:04;13.57;;;5.20;;
61104;SDS011;46987;32.638;-115.438;2022-08-04T13:46:36;13.80;;;4.88;;
61104;SDS011;46987;32.638;-115.438;2022-08-04T13:49:06;13.57;;;4.35;;
61104;SDS011;46987;32.638;-115.438;2022-08-04T13:51:37;14.75;;;4.00;;
61104;SDS011;46987;32.638;-115.438;2022-08-04T13:54:06;12.98;;;3.97;;
61104;SDS011;46987;32.638;-115.438;2022-08-04T13:56:34;11.07;;;4.05;;
61104;SDS011;46987;32.638;-115.438;2022-08-04T13:59:07;12.95;;;3.83;;
61104;SDS011;46987;32.638;-115.438;2022-08-04T14:01:37;13.32;;;4.13;;
61104;SDS011;46987;32.638;-115.438;2022-08-04T14:04:10;14.18;;;4.40;;
61104;SDS011;46987;32.638;-115.438;2022-08-04T14:06:46;12.05;;;4.78;;
61104;SDS011;46987;32.638;-115.438;2022-08-04T14:09:16;12.77;;;5.05;;
61104;SDS011;46987;32.638;-115.438;2022-08-04T14:11:45;16.17;;;5.70;;
61104;SDS011;46987;32.638;-115.438;2022-08-04T14:14:14;14.75;;;5.93;;
61104;SDS011;46987;32.638;-115.438;2022-08-04T14:16:59;17.88;;;6.13;;
61104;SDS011;46987;32.638;-115.438;2022-08-04T14:19:28;12.90;;;4.97;;
61104;SDS011;46987;32.638;-115.438;2022-08-04T14:25:13;10.45;;;3.90;;
61104;SDS011;46987;32.638;-115.438;2022-08-04T14:27:42;10.65;;;3.30;;
61104;SDS011;46987;32.638;-115.438;2022-08-04T14:30:20;13.80;;;3.25;;
61104;SDS011;46987;32.638;-115.438;2022-08-04T14:32:58;15.60;;;3.33;;
61104;SDS011;46987;32.638;-115.438;2022-08-04T14:35:27;8.23;;;3.30;;
61104;SDS011;46987;32.638;-115.438;2022-08-04T14:37:59;8.93;;;3.20;;
61104;SDS011;46987;32.638;-115.438;2022-08-04T14:40:27;10.73;;;3.25;;
61104;SDS011;46987;32.638;-115.438;2022-08-04T14:42:56;9.20;;;2.75;;
61104;SDS011;46987;32.638;-115.438;2022-08-04T14:45:27;8.30;;;2.72;;
61104;SDS011;46987;32.638;-115.438;2022-08-04T14:47:56;10.52;;;2.80;;
61104;SDS011;46987;32.638;-115.438;2022-08-04T14:50:34;9.30;;;3.03;;
61104;SDS011;46987;32.638;-115.438;2022-08-04T14:53:08;8.32;;;2.80;;
61104;SDS011;46987;32.638;-115.438;2022-08-04T14:55:37;8.27;;;3.25;;
61104;SDS011;46987;32.638;-115.438;2022-08-04T14:58:15;10.30;;;2.97;;
61104;SDS011;46987;32.638;-115.438;2022-08-04T15:00:43;10.25;;;2.97;;
61104;SDS011;46987;32.638;-115.438;2022-08-04T15:03:12;10.85;;;2.90;;
61104;SDS011;46987;32.638;-115.438;2022-08-04T15:05:40;9.43;;;2.58;;
61104;SDS011;46987;32.638;-115.438;2022-08-04T15:08:09;12.07;;;3.22;;
61104;SDS011;46987;32.638;-115.438;2022-08-04T15:10:39;13.70;;;2.72;;
61104;SDS011;46987;32.638;-115.438;2022-08-04T15:13:07;13.45;;;2.88;;
61104;SDS011;46987;32.638;-115.438;2022-08-04T15:15:37;8.18;;;2.55;;
61104;SDS011;46987;32.638;-115.438;2022-08-04T15:18:06;11.57;;;3.15;;
61104;SDS011;46987;32.638;-115.438;2022-08-04T15:20:34;9.43;;;2.45;;
61104;SDS011;46987;32.638;-115.438;2022-08-04T15:23:03;8.95;;;2.90;;
61104;SDS011;46987;32.638;-115.438;2022-08-04T15:25:33;9.32;;;2.72;;
61104;SDS011;46987;32.638;-115.438;2022-08-04T15:28:06;8.73;;;3.13;;
61104;SDS011;46987;32.638;-115.438;2022-08-04T15:30:38;9.65;;;3.10;;
61104;SDS011;46987;32.638;-115.438;2022-08-04T15:33:08;9.73;;;2.55;;
61104;SDS011;46987;32.638;-115.438;2022-08-04T15:35:36;12.05;;;2.78;;
61104;SDS011;46987;32.638;-115.438;2022-08-04T15:38:04;10.68;;;2.80;;